createdAt,value
2022-11-26T00:00:48.261Z,97.36
2022-11-26T00:01:48.321Z,97.52
2022-11-26T00:02:48.517Z,97.72
2022-11-26T00:03:48.281Z,97.78
2022-11-26T00:04:48.210Z,97.88
2022-11-26T00:05:48.237Z,97.99
2022-11-26T00:06:48.190Z,97.99
2022-11-26T00:07:48.230Z,97.99
2022-11-26T00:08:48.161Z,97.99
2022-11-26T00:09:48.182Z,97.78
2022-11-26T00:10:48.149Z,97.78
2022-11-26T00:11:48.142Z,97.78
2022-11-26T00:12:48.138Z,97.57
2022-11-26T00:13:48.112Z,97.47
2022-11-26T00:14:48.122Z,97.36
2022-11-26T00:15:48.129Z,97.36
2022-11-26T00:16:48.204Z,97.26
2022-11-26T00:17:48.101Z,97.20
2022-11-26T00:18:48.191Z,97.20
2022-11-26T00:19:48.122Z,97.20
2022-11-26T00:20:48.107Z,97.20
2022-11-26T00:21:48.053Z,97.10
2022-11-26T00:22:48.083Z,97.10
2022-11-26T00:23:47.968Z,97.00
2022-11-26T00:24:47.953Z,96.89
2022-11-26T00:25:48.087Z,96.89
2022-11-26T00:26:47.930Z,96.89
2022-11-26T00:27:47.938Z,96.79
2022-11-26T00:28:47.899Z,96.69
2022-11-26T00:29:47.882Z,96.62
2022-11-26T00:30:47.910Z,96.73
2022-11-26T00:31:47.971Z,96.73
2022-11-26T00:32:47.881Z,96.52
2022-11-26T00:33:47.871Z,96.52
2022-11-26T00:34:47.821Z,96.42
2022-11-26T00:35:47.830Z,96.36
2022-11-26T00:36:47.792Z,96.47
2022-11-26T00:37:47.783Z,96.57
2022-11-26T00:38:47.773Z,96.67
2022-11-26T00:39:47.760Z,96.67
2022-11-26T00:40:47.763Z,96.67
2022-11-26T00:41:47.729Z,96.67
2022-11-26T00:42:47.719Z,96.67
2022-11-26T00:43:47.690Z,96.67
2022-11-26T00:44:47.718Z,96.78
2022-11-26T00:45:47.927Z,96.82
2022-11-26T00:46:47.659Z,96.92
2022-11-26T00:47:47.652Z,97.03
2022-11-26T00:48:47.647Z,97.24
2022-11-26T00:49:47.690Z,97.24
2022-11-26T00:50:47.660Z,97.34
2022-11-26T00:51:47.603Z,97.24
2022-11-26T00:52:47.581Z,97.24
2022-11-26T00:53:47.571Z,97.13
2022-11-26T00:54:47.559Z,97.03
2022-11-26T00:55:47.561Z,96.92
2022-11-26T00:56:47.529Z,96.92
2022-11-26T00:57:47.520Z,96.82
2022-11-26T00:58:47.569Z,96.72
2022-11-26T00:59:47.531Z,96.61
2022-11-26T01:00:47.538Z,96.61
2022-11-26T01:01:47.559Z,96.72
2022-11-26T01:02:47.461Z,96.66
2022-11-26T01:03:47.449Z,96.66
2022-11-26T01:04:47.426Z,96.66
2022-11-26T01:05:47.442Z,96.76
2022-11-26T01:06:47.397Z,96.76
2022-11-26T01:07:47.474Z,96.55
2022-11-26T01:08:47.379Z,96.66
2022-11-26T01:09:47.392Z,96.76
2022-11-26T01:10:47.359Z,96.76
2022-11-26T01:11:52.378Z,96.76
2022-11-26T01:12:48.336Z,96.76
2022-11-26T01:13:47.338Z,96.86
2022-11-26T01:14:47.297Z,96.76
2022-11-26T01:15:47.301Z,96.76
2022-11-26T01:16:47.338Z,96.76
2022-11-26T01:17:47.260Z,96.76
2022-11-26T01:18:47.250Z,96.76
2022-11-26T01:19:47.229Z,96.66
2022-11-26T01:20:47.227Z,96.55
2022-11-26T01:21:47.237Z,96.55
2022-11-26T01:22:47.201Z,96.55
2022-11-26T01:23:47.182Z,96.66
2022-11-26T01:24:47.167Z,96.76
2022-11-26T01:25:47.167Z,96.76
2022-11-26T01:26:47.151Z,96.55
2022-11-26T01:27:47.131Z,96.45
2022-11-26T01:28:47.119Z,96.24
2022-11-26T01:29:54.257Z,96.08
2022-11-26T01:30:47.098Z,95.98
2022-11-26T01:31:47.305Z,95.87
2022-11-26T01:32:47.067Z,95.87
2022-11-26T01:33:47.055Z,95.77
2022-11-26T01:34:47.046Z,95.77
2022-11-26T01:35:47.036Z,95.77
2022-11-26T01:36:47.029Z,95.77
2022-11-26T01:37:47.004Z,95.71
2022-11-26T01:38:46.983Z,95.81
2022-11-26T01:39:47.005Z,96.02
2022-11-26T01:40:46.965Z,96.23
2022-11-26T01:41:46.946Z,96.12
2022-11-26T01:42:46.938Z,96.12
2022-11-26T01:43:46.924Z,96.12
2022-11-26T01:44:46.925Z,96.23
2022-11-26T01:45:46.984Z,96.23
2022-11-26T01:46:46.927Z,96.33
2022-11-26T01:47:46.875Z,96.23
2022-11-26T01:48:46.855Z,96.12
2022-11-26T01:49:46.846Z,96.12
2022-11-26T01:50:46.826Z,96.12
2022-11-26T01:51:46.883Z,96.02
2022-11-26T01:52:46.797Z,95.81
2022-11-26T01:53:46.799Z,95.71
2022-11-26T01:54:46.766Z,95.61
2022-11-26T01:55:46.764Z,95.50
2022-11-26T01:56:46.767Z,95.29
2022-11-26T01:57:46.749Z,95.23
2022-11-26T01:58:46.751Z,95.34
2022-11-26T01:59:46.712Z,95.44
2022-11-26T02:00:46.818Z,95.65
2022-11-26T02:01:46.752Z,95.86
2022-11-26T02:02:46.752Z,95.86
2022-11-26T02:03:46.656Z,95.75
2022-11-26T02:04:46.647Z,95.75
2022-11-26T02:05:46.634Z,95.75
2022-11-26T02:06:46.645Z,95.86
2022-11-26T02:07:46.696Z,95.86
2022-11-26T02:08:46.615Z,95.86
2022-11-26T02:09:46.618Z,95.86
2022-11-26T02:10:46.572Z,95.86
2022-11-26T02:11:46.602Z,95.86
2022-11-26T02:12:46.534Z,95.86
2022-11-26T02:13:46.524Z,95.86
2022-11-26T02:14:46.572Z,95.96
2022-11-26T02:15:46.509Z,96.06
2022-11-26T02:16:46.560Z,96.06
2022-11-26T02:17:46.489Z,96.17
2022-11-26T02:18:46.483Z,96.17
2022-11-26T02:19:46.454Z,96.06
2022-11-26T02:20:46.428Z,96.17
2022-11-26T02:21:46.424Z,96.21
2022-11-26T02:22:46.434Z,96.31
2022-11-26T02:23:46.405Z,96.31
2022-11-26T02:24:46.376Z,96.42
2022-11-26T02:25:46.374Z,96.42
2022-11-26T02:26:46.367Z,96.42
2022-11-26T02:27:46.355Z,96.52
2022-11-26T02:28:46.323Z,96.62
2022-11-26T02:29:46.324Z,96.62
2022-11-26T02:30:46.304Z,96.62
2022-11-26T02:31:46.389Z,96.73
2022-11-26T02:32:46.354Z,96.94
2022-11-26T02:33:46.270Z,97.14
2022-11-26T02:34:46.253Z,97.35
2022-11-26T02:35:46.241Z,97.56
2022-11-26T02:36:46.243Z,97.45
2022-11-26T02:37:46.237Z,97.45
2022-11-26T02:38:46.203Z,97.35
2022-11-26T02:39:46.183Z,97.25
2022-11-26T02:40:46.183Z,97.04
2022-11-26T02:41:46.163Z,96.94
2022-11-26T02:42:46.162Z,96.73
2022-11-26T02:43:46.138Z,96.73
2022-11-26T02:44:46.122Z,96.73
2022-11-26T02:45:46.156Z,96.73
2022-11-26T02:46:46.107Z,96.73
2022-11-26T02:47:46.103Z,96.62
2022-11-26T02:48:46.083Z,96.52
2022-11-26T02:49:46.051Z,96.52
2022-11-26T02:50:46.041Z,96.52
2022-11-26T02:51:46.029Z,96.42
2022-11-26T02:52:46.036Z,96.31
2022-11-26T02:53:46.001Z,96.31
2022-11-26T02:54:45.994Z,96.31
2022-11-26T02:55:45.982Z,96.21
2022-11-26T02:56:45.962Z,96.15
2022-11-26T02:57:45.970Z,96.04
2022-11-26T02:58:45.940Z,96.15
2022-11-26T02:59:45.922Z,96.04
2022-11-26T03:00:45.977Z,96.00
2022-11-26T03:01:45.926Z,95.90
2022-11-26T03:02:45.903Z,95.79
2022-11-26T03:03:45.894Z,95.79
2022-11-26T03:04:45.862Z,95.63
2022-11-26T03:05:45.840Z,95.42
2022-11-26T03:06:45.832Z,95.42
2022-11-26T03:07:45.875Z,95.42
2022-11-26T03:08:45.818Z,95.42
2022-11-26T03:09:45.797Z,95.42
2022-11-26T03:10:45.782Z,95.53
2022-11-26T03:11:45.811Z,95.63
2022-11-26T03:12:45.772Z,95.73
2022-11-26T03:13:45.746Z,95.94
2022-11-26T03:14:45.733Z,95.94
2022-11-26T03:15:45.710Z,96.04
2022-11-26T03:16:45.739Z,96.04
2022-11-26T03:17:45.691Z,95.94
2022-11-26T03:18:45.683Z,95.84
2022-11-26T03:19:45.651Z,95.73
2022-11-26T03:20:45.651Z,95.84
2022-11-26T03:21:45.628Z,95.84
2022-11-26T03:22:45.651Z,95.84
2022-11-26T03:23:45.602Z,95.73
2022-11-26T03:24:45.601Z,95.63
2022-11-26T03:25:45.581Z,95.42
2022-11-26T03:26:45.584Z,95.26
2022-11-26T03:27:45.570Z,95.26
2022-11-26T03:28:45.541Z,95.26
2022-11-26T03:29:45.531Z,95.36
2022-11-26T03:30:45.521Z,95.36
2022-11-26T03:31:45.570Z,95.47
2022-11-26T03:32:45.512Z,95.67
2022-11-26T03:33:45.483Z,95.78
2022-11-26T03:34:45.472Z,95.67
2022-11-26T03:35:45.450Z,95.67
2022-11-26T03:36:45.450Z,95.57
2022-11-26T03:37:45.451Z,95.67
2022-11-26T03:38:45.416Z,95.57
2022-11-26T03:39:45.400Z,95.57
2022-11-26T03:40:45.382Z,95.57
2022-11-26T03:41:45.369Z,95.57
2022-11-26T03:42:45.382Z,95.47
2022-11-26T03:43:45.345Z,95.47
2022-11-26T03:44:45.330Z,95.36
2022-11-26T03:45:45.360Z,95.47
2022-11-26T03:46:45.312Z,95.57
2022-11-26T03:47:45.311Z,95.57
2022-11-26T03:48:45.281Z,95.67
2022-11-26T03:49:45.272Z,95.57
2022-11-26T03:50:45.250Z,95.47
2022-11-26T03:51:45.240Z,95.26
2022-11-26T03:52:45.231Z,95.15
2022-11-26T03:53:45.241Z,95.05
2022-11-26T03:54:45.210Z,95.15
2022-11-26T03:55:45.193Z,95.26
2022-11-26T03:56:45.259Z,95.26
2022-11-26T03:57:45.162Z,95.15
2022-11-26T03:58:45.189Z,95.15
2022-11-26T03:59:45.131Z,95.05
2022-11-26T04:00:45.119Z,94.95
2022-11-26T04:01:45.155Z,94.95
2022-11-26T04:02:45.126Z,94.64
2022-11-26T04:03:45.100Z,94.53
2022-11-26T04:04:45.080Z,94.53
2022-11-26T04:05:45.059Z,94.43
2022-11-26T04:06:45.052Z,94.53
2022-11-26T04:07:45.096Z,94.78
2022-11-26T04:08:45.041Z,94.89
2022-11-26T04:09:45.018Z,95.09
2022-11-26T04:10:44.988Z,95.30
2022-11-26T04:11:44.982Z,95.51
2022-11-26T04:12:44.969Z,95.62
2022-11-26T04:13:45.000Z,95.83
2022-11-26T04:14:44.972Z,96.03
2022-11-26T04:15:44.919Z,96.24
2022-11-26T04:16:45.011Z,96.45
2022-11-26T04:17:44.900Z,96.55
2022-11-26T04:18:44.910Z,96.55
2022-11-26T04:19:44.888Z,96.45
2022-11-26T04:20:47.656Z,96.45
2022-11-26T04:21:45.859Z,96.45
2022-11-26T04:22:44.850Z,96.34
2022-11-26T04:23:44.852Z,96.14
2022-11-26T04:24:44.809Z,96.03
2022-11-26T04:25:44.802Z,95.83
2022-11-26T04:26:44.779Z,95.72
2022-11-26T04:27:44.778Z,95.72
2022-11-26T04:28:44.769Z,95.62
2022-11-26T04:29:44.745Z,95.62
2022-11-26T04:30:44.728Z,95.51
2022-11-26T04:31:44.790Z,95.40
2022-11-26T04:32:44.719Z,95.40
2022-11-26T04:33:44.723Z,95.40
2022-11-26T04:34:44.678Z,95.40
2022-11-26T04:35:44.683Z,95.51
2022-11-26T04:36:44.650Z,95.51
2022-11-26T04:37:44.640Z,95.51
2022-11-26T04:38:44.649Z,95.51
2022-11-26T04:39:44.608Z,95.51
2022-11-26T04:40:44.609Z,95.40
2022-11-26T04:41:44.589Z,95.40
2022-11-26T04:42:44.570Z,95.51
2022-11-26T04:43:44.581Z,95.51
2022-11-26T04:44:44.547Z,95.40
2022-11-26T04:45:44.597Z,95.51
2022-11-26T04:46:44.531Z,95.51
2022-11-26T04:47:44.518Z,95.51
2022-11-26T04:48:44.558Z,95.40
2022-11-26T04:49:44.492Z,95.40
2022-11-26T04:50:44.477Z,95.40
2022-11-26T04:51:44.448Z,95.51
2022-11-26T04:52:44.439Z,95.40
2022-11-26T04:53:44.447Z,95.30
2022-11-26T04:54:44.416Z,95.40
2022-11-26T04:55:44.396Z,95.40
2022-11-26T04:56:44.419Z,95.40
2022-11-26T04:57:44.389Z,95.40
2022-11-26T04:58:44.379Z,95.40
2022-11-26T04:59:44.349Z,95.40
2022-11-26T05:00:46.017Z,95.30
2022-11-26T05:01:45.350Z,95.30
2022-11-26T05:02:44.375Z,95.40
2022-11-26T05:03:44.329Z,95.40
2022-11-26T05:04:44.278Z,95.30
2022-11-26T05:05:44.278Z,95.25
2022-11-26T05:06:44.295Z,95.25
2022-11-26T05:07:44.326Z,95.14
2022-11-26T05:08:44.250Z,95.03
2022-11-26T05:09:44.228Z,95.14
2022-11-26T05:10:44.197Z,95.25
2022-11-26T05:11:44.190Z,95.25
2022-11-26T05:12:44.180Z,95.14
2022-11-26T05:13:44.178Z,95.14
2022-11-26T05:14:44.148Z,95.14
2022-11-26T05:15:44.150Z,95.14
2022-11-26T05:16:44.172Z,95.25
2022-11-26T05:17:44.134Z,95.45
2022-11-26T05:18:44.118Z,95.56
2022-11-26T05:19:44.099Z,95.66
2022-11-26T05:20:44.066Z,95.66
2022-11-26T05:21:44.068Z,95.66
2022-11-26T05:22:44.047Z,95.66
2022-11-26T05:23:44.062Z,95.66
2022-11-26T05:24:44.017Z,95.56
2022-11-26T05:25:44.026Z,95.45
2022-11-26T05:26:44.009Z,95.35
2022-11-26T05:27:43.978Z,95.25
2022-11-26T05:28:44.007Z,95.14
2022-11-26T05:29:43.958Z,94.93
2022-11-26T05:30:43.937Z,94.87
2022-11-26T05:31:44.027Z,94.98
2022-11-26T05:32:43.916Z,95.08
2022-11-26T05:33:43.916Z,95.18
2022-11-26T05:34:43.886Z,95.29
2022-11-26T05:35:43.904Z,95.18
2022-11-26T05:36:43.858Z,95.18
2022-11-26T05:37:43.855Z,95.08
2022-11-26T05:38:43.856Z,95.08
2022-11-26T05:39:43.839Z,95.08
2022-11-26T05:40:43.815Z,95.08
2022-11-26T05:41:43.813Z,95.08
2022-11-26T05:42:43.787Z,95.08
2022-11-26T05:43:43.795Z,94.98
2022-11-26T05:44:43.757Z,94.87
2022-11-26T05:45:43.819Z,94.92
2022-11-26T05:46:43.740Z,94.81
2022-11-26T05:47:43.726Z,94.81
2022-11-26T05:48:43.728Z,94.70
2022-11-26T05:49:43.678Z,94.70
2022-11-26T05:50:43.686Z,94.60
2022-11-26T05:51:43.646Z,94.60
2022-11-26T05:52:43.656Z,94.60
2022-11-26T05:53:43.684Z,94.70
2022-11-26T05:54:43.641Z,94.81
2022-11-26T05:55:43.626Z,94.81
2022-11-26T05:56:43.597Z,94.81
2022-11-26T05:57:43.599Z,94.81
2022-11-26T05:58:43.602Z,94.81
2022-11-26T05:59:43.574Z,94.81
2022-11-26T06:00:43.549Z,94.70
2022-11-26T06:01:43.544Z,94.49
2022-11-26T06:02:43.687Z,94.39
2022-11-26T06:03:43.581Z,94.29
2022-11-26T06:04:43.524Z,94.18
2022-11-26T06:05:43.506Z,94.29
2022-11-26T06:06:43.467Z,94.29
2022-11-26T06:07:45.092Z,94.29
2022-11-26T06:08:43.462Z,94.39
2022-11-26T06:09:43.465Z,94.18
2022-11-26T06:10:43.414Z,94.18
2022-11-26T06:11:43.414Z,94.43
2022-11-26T06:12:43.394Z,94.49
2022-11-26T06:13:43.396Z,94.60
2022-11-26T06:14:43.803Z,94.49
2022-11-26T06:15:43.373Z,94.43
2022-11-26T06:16:43.394Z,94.43
2022-11-26T06:17:43.352Z,94.54
2022-11-26T06:18:43.325Z,94.75
2022-11-26T06:19:43.333Z,94.75
2022-11-26T06:20:43.295Z,94.85
2022-11-26T06:21:43.285Z,94.75
2022-11-26T06:22:43.273Z,94.60
2022-11-26T06:23:50.589Z,94.64
2022-11-26T06:24:44.304Z,94.54
2022-11-26T06:25:43.248Z,94.64
2022-11-26T06:26:43.317Z,94.64
2022-11-26T06:27:43.244Z,94.64
2022-11-26T06:28:43.233Z,94.75
2022-11-26T06:29:43.211Z,94.70
2022-11-26T06:30:43.164Z,94.70
2022-11-26T06:31:43.242Z,94.81
2022-11-26T06:32:43.144Z,94.92
2022-11-26T06:33:43.133Z,95.02
2022-11-26T06:34:44.282Z,95.02
2022-11-26T06:35:43.113Z,95.12
2022-11-26T06:36:43.093Z,95.23
2022-11-26T06:37:43.083Z,95.33
2022-11-26T06:38:43.075Z,95.23
2022-11-26T06:39:43.073Z,95.23
2022-11-26T06:40:43.045Z,95.23
2022-11-26T06:41:43.021Z,95.33
2022-11-26T06:42:43.011Z,95.33
2022-11-26T06:43:43.000Z,95.54
2022-11-26T06:44:43.008Z,95.85
2022-11-26T06:45:43.004Z,95.95
2022-11-26T06:46:42.960Z,95.95
2022-11-26T06:47:42.941Z,96.16
2022-11-26T06:48:42.942Z,96.16
2022-11-26T06:49:42.921Z,96.21
2022-11-26T06:50:42.940Z,96.16
2022-11-26T06:51:42.903Z,96.31
2022-11-26T06:52:42.881Z,96.37
2022-11-26T06:53:42.891Z,96.37
2022-11-26T06:54:42.851Z,96.48
2022-11-26T06:55:42.873Z,96.48
2022-11-26T06:56:42.831Z,96.58
2022-11-26T06:57:42.822Z,96.48
2022-11-26T06:58:42.802Z,96.26
2022-11-26T06:59:42.802Z,96.21
2022-11-26T07:00:42.792Z,96.21
2022-11-26T07:01:42.861Z,96.21
2022-11-26T07:02:42.831Z,96.42
2022-11-26T07:03:42.744Z,96.52
2022-11-26T07:04:42.730Z,96.62
2022-11-26T07:05:42.754Z,96.83
2022-11-26T07:06:42.703Z,96.83
2022-11-26T07:07:42.763Z,96.83
2022-11-26T07:08:42.671Z,96.73
2022-11-26T07:09:42.661Z,96.73
2022-11-26T07:10:46.177Z,96.73
2022-11-26T07:11:43.639Z,96.94
2022-11-26T07:12:42.621Z,97.00
2022-11-26T07:13:42.620Z,97.00
2022-11-26T07:14:42.596Z,96.89
2022-11-26T07:15:42.671Z,96.69
2022-11-26T07:16:42.570Z,96.48
2022-11-26T07:17:42.564Z,96.26
2022-11-26T07:18:42.539Z,96.26
2022-11-26T07:19:42.531Z,96.37
2022-11-26T07:20:42.539Z,96.58
2022-11-26T07:21:42.510Z,96.69
2022-11-26T07:22:42.491Z,96.79
2022-11-26T07:23:42.488Z,96.89
2022-11-26T07:24:42.459Z,96.85
2022-11-26T07:25:42.479Z,96.85
2022-11-26T07:26:42.439Z,96.75
2022-11-26T07:27:42.443Z,96.64
2022-11-26T07:28:42.449Z,96.64
2022-11-26T07:29:42.407Z,96.64
2022-11-26T07:30:42.399Z,96.64
2022-11-26T07:31:42.423Z,96.64
2022-11-26T07:32:49.645Z,96.39
2022-11-26T07:33:42.342Z,96.18
2022-11-26T07:34:42.352Z,96.08
2022-11-26T07:35:42.373Z,96.08
2022-11-26T07:36:42.317Z,96.08
2022-11-26T07:37:42.303Z,96.18
2022-11-26T07:38:42.334Z,96.18
2022-11-26T07:39:42.276Z,96.18
2022-11-26T07:40:42.273Z,96.08
2022-11-26T07:41:42.232Z,96.18
2022-11-26T07:42:42.246Z,96.28
2022-11-26T07:43:42.205Z,96.59
2022-11-26T07:44:42.202Z,96.80
2022-11-26T07:45:42.256Z,96.91
2022-11-26T07:46:42.284Z,97.01
2022-11-26T07:47:42.166Z,97.22
2022-11-26T07:48:42.145Z,97.43
2022-11-26T07:49:42.142Z,97.64
2022-11-26T07:50:42.152Z,97.85
2022-11-26T07:51:42.149Z,97.95
2022-11-26T07:52:42.092Z,98.05
2022-11-26T07:53:42.084Z,98.16
2022-11-26T07:54:42.074Z,98.32
2022-11-26T07:55:42.102Z,98.32
2022-11-26T07:56:42.044Z,98.43
2022-11-26T07:57:42.031Z,98.53
2022-11-26T07:58:42.049Z,98.43
2022-11-26T07:59:42.012Z,98.32
2022-11-26T08:00:42.012Z,98.36
2022-11-26T08:01:42.058Z,98.36
2022-11-26T08:02:42.047Z,98.32
2022-11-26T08:03:41.959Z,98.47
2022-11-26T08:04:41.944Z,98.32
2022-11-26T08:05:41.961Z,98.26
2022-11-26T08:06:41.912Z,98.16
2022-11-26T08:07:41.943Z,98.16
2022-11-26T08:08:41.892Z,98.11
2022-11-26T08:09:41.882Z,98.11
2022-11-26T08:10:41.881Z,97.91
2022-11-26T08:11:41.892Z,97.80
2022-11-26T08:12:41.852Z,97.59
2022-11-26T08:13:41.830Z,97.38
2022-11-26T08:14:41.811Z,96.97
2022-11-26T08:15:41.812Z,96.55
2022-11-26T08:16:41.927Z,96.49
2022-11-26T08:17:41.781Z,96.49
2022-11-26T08:18:41.762Z,96.59
2022-11-26T08:19:41.758Z,96.59
2022-11-26T08:20:41.730Z,96.70
2022-11-26T08:21:41.740Z,96.70
2022-11-26T08:22:41.722Z,96.76
2022-11-26T08:23:41.700Z,96.97
2022-11-26T08:24:41.770Z,97.28
2022-11-26T08:25:59.329Z,97.28
2022-11-26T08:26:44.540Z,97.17
2022-11-26T08:27:41.641Z,97.17
2022-11-26T08:28:41.661Z,96.76
2022-11-26T08:29:41.652Z,96.97
2022-11-26T08:30:41.608Z,97.17
2022-11-26T08:31:45.715Z,97.49
2022-11-26T08:32:41.581Z,97.59
2022-11-26T08:33:41.561Z,97.70
2022-11-26T08:34:41.667Z,97.80
2022-11-26T08:36:05.472Z,97.91
2022-11-26T08:36:42.561Z,98.07
2022-11-26T08:37:42.649Z,98.17
2022-11-26T08:38:41.490Z,98.27
2022-11-26T08:39:41.482Z,98.27
2022-11-26T08:40:41.469Z,98.23
2022-11-26T08:41:41.492Z,98.23
2022-11-26T08:42:41.440Z,98.23
2022-11-26T08:44:42.439Z,97.98
2022-11-26T08:45:41.410Z,97.98
2022-11-26T08:46:41.651Z,97.98
2022-11-26T08:47:41.412Z,97.88
2022-11-26T08:48:41.379Z,97.77
2022-11-26T08:49:41.359Z,97.77
2022-11-26T08:50:41.370Z,97.72
2022-11-26T08:51:41.340Z,97.72
2022-11-26T08:52:41.328Z,97.62
2022-11-26T08:53:41.298Z,97.62
2022-11-26T08:54:45.010Z,97.52
2022-11-26T08:55:59.627Z,97.47
2022-11-26T08:56:42.290Z,97.47
2022-11-26T08:57:41.258Z,97.27
2022-11-26T08:58:41.236Z,97.16
2022-11-26T08:59:41.220Z,97.16
2022-11-26T09:00:41.210Z,97.16
2022-11-26T09:01:41.243Z,97.37
2022-11-26T09:02:41.291Z,97.68
2022-11-26T09:03:41.177Z,97.78
2022-11-26T09:04:41.441Z,97.74
2022-11-26T09:05:41.152Z,97.74
2022-11-26T09:06:41.178Z,97.74
2022-11-26T09:07:45.207Z,97.64
2022-11-26T09:08:42.101Z,97.64
2022-11-26T09:09:41.089Z,97.53
2022-11-26T09:10:41.079Z,97.38
2022-11-26T09:11:41.087Z,97.38
2022-11-26T09:12:41.067Z,97.38
2022-11-26T09:13:41.037Z,97.38
2022-11-26T09:14:41.476Z,97.28
2022-11-26T09:15:41.007Z,97.17
2022-11-26T09:16:41.071Z,97.17
2022-11-26T09:17:41.004Z,97.17
2022-11-26T09:18:41.000Z,97.17
2022-11-26T09:19:40.958Z,97.38
2022-11-26T09:20:40.935Z,97.38
2022-11-26T09:21:40.968Z,97.44
2022-11-26T09:22:41.059Z,97.44
2022-11-26T09:23:40.902Z,97.44
2022-11-26T09:24:41.086Z,97.55
2022-11-26T09:25:40.987Z,97.55
2022-11-26T09:26:40.904Z,97.55
2022-11-26T09:27:41.722Z,97.55
2022-11-26T09:28:41.619Z,97.60
2022-11-26T09:29:41.923Z,97.60
2022-11-26T09:30:41.617Z,97.71
2022-11-26T09:32:00.879Z,97.91
2022-11-26T09:32:42.031Z,97.91
2022-11-26T09:33:41.266Z,97.91
2022-11-26T09:34:41.325Z,97.91
2022-11-26T09:35:40.737Z,97.91
2022-11-26T09:36:40.747Z,97.97
2022-11-26T09:37:40.745Z,97.97
2022-11-26T09:38:40.721Z,97.97
2022-11-26T09:39:40.677Z,97.97
2022-11-26T09:40:40.983Z,97.97
2022-11-26T09:41:40.836Z,97.97
2022-11-26T09:42:40.699Z,97.97
2022-11-26T09:43:40.697Z,97.97
2022-11-26T09:44:41.154Z,97.97
2022-11-26T09:45:41.043Z,97.93
2022-11-26T09:46:50.802Z,98.03
2022-11-26T09:47:42.149Z,98.13
2022-11-26T09:48:41.211Z,98.13
2022-11-26T09:49:40.560Z,98.03
2022-11-26T09:50:41.478Z,97.93
2022-11-26T09:51:40.547Z,98.03
2022-11-26T09:52:40.548Z,98.03
2022-11-26T09:53:40.487Z,97.93
2022-11-26T09:54:40.854Z,97.93
2022-11-26T09:55:40.487Z,97.83
2022-11-26T09:56:40.468Z,97.93
2022-11-26T09:57:40.799Z,97.93
2022-11-26T09:58:40.497Z,98.03
2022-11-26T09:59:40.438Z,98.03
2022-11-26T10:00:40.453Z,98.03
2022-11-26T10:01:40.540Z,98.03
2022-11-26T10:02:40.451Z,98.03
2022-11-26T10:03:40.387Z,98.03
2022-11-26T10:04:40.757Z,98.03
2022-11-26T10:05:40.376Z,98.03
2022-11-26T10:06:40.404Z,98.13
2022-11-26T10:07:40.401Z,98.24
2022-11-26T10:08:40.327Z,98.24
2022-11-26T10:09:40.305Z,98.34
2022-11-26T10:10:40.295Z,98.34
2022-11-26T10:11:40.277Z,98.30
2022-11-26T10:13:03.036Z,98.19
2022-11-26T10:13:41.259Z,98.19
2022-11-26T10:14:40.528Z,98.19
2022-11-26T10:15:40.216Z,98.19
2022-11-26T10:16:40.322Z,98.30
2022-11-26T10:17:40.213Z,98.30
2022-11-26T10:18:40.630Z,98.30
2022-11-26T10:19:40.181Z,98.40
2022-11-26T10:20:40.175Z,98.40
2022-11-26T10:22:41.156Z,98.40
2022-11-26T10:23:40.117Z,98.40
2022-11-26T10:24:40.479Z,98.35
2022-11-26T10:25:40.096Z,98.35
2022-11-26T10:26:40.085Z,98.35
2022-11-26T10:27:40.064Z,98.25
2022-11-26T10:28:40.146Z,98.25
2022-11-26T10:29:40.025Z,98.15
2022-11-26T10:30:40.033Z,98.05
2022-11-26T10:31:40.089Z,98.05
2022-11-26T10:32:40.039Z,97.94
2022-11-26T10:33:40.017Z,97.84
2022-11-26T10:34:40.049Z,97.84
2022-11-26T10:35:39.957Z,97.94
2022-11-26T10:36:39.956Z,97.94
2022-11-26T10:37:39.926Z,98.05
2022-11-26T10:38:39.946Z,98.15
2022-11-26T10:39:39.913Z,98.15
2022-11-26T10:40:39.907Z,98.25
2022-11-26T10:41:39.885Z,98.25
2022-11-26T10:42:39.876Z,98.31
2022-11-26T10:43:39.895Z,98.31
2022-11-26T10:44:40.423Z,98.21
2022-11-26T10:45:39.941Z,98.10
2022-11-26T10:46:40.040Z,98.00
2022-11-26T10:47:39.806Z,97.79
2022-11-26T10:48:39.815Z,97.59
2022-11-26T10:49:39.870Z,97.38
2022-11-26T10:50:47.596Z,97.07
2022-11-26T10:51:40.755Z,96.97
2022-11-26T10:52:39.859Z,96.86
2022-11-26T10:53:39.801Z,96.76
2022-11-26T10:54:39.835Z,96.66
2022-11-26T10:55:39.796Z,96.66
2022-11-26T10:56:39.705Z,96.76
2022-11-26T10:57:39.679Z,96.76
2022-11-26T10:58:39.684Z,96.76
2022-11-26T10:59:39.775Z,96.55
2022-11-26T11:00:39.729Z,96.45
2022-11-26T11:01:39.699Z,96.34
2022-11-26T11:02:39.685Z,96.34
2022-11-26T11:04:07.257Z,96.34
2022-11-26T11:04:40.614Z,96.34
2022-11-26T11:05:39.575Z,96.45
2022-11-26T11:06:39.563Z,96.55
2022-11-26T11:07:39.559Z,96.66
2022-11-26T11:08:39.555Z,96.61
2022-11-26T11:09:39.519Z,96.72
2022-11-26T11:10:39.505Z,96.72
2022-11-26T11:11:39.495Z,96.72
2022-11-26T11:12:39.476Z,96.72
2022-11-26T11:13:39.479Z,96.72
2022-11-26T11:14:42.688Z,96.51
2022-11-26T11:15:39.436Z,96.20
2022-11-26T11:16:39.513Z,96.09
2022-11-26T11:17:39.425Z,95.99
2022-11-26T11:18:39.526Z,95.78
2022-11-26T11:19:39.423Z,95.78
2022-11-26T11:20:39.467Z,95.78
2022-11-26T11:21:43.844Z,95.89
2022-11-26T11:22:40.425Z,95.99
2022-11-26T11:24:07.045Z,96.09
2022-11-26T11:24:40.652Z,96.51
2022-11-26T11:25:39.417Z,96.61
2022-11-26T11:26:39.616Z,96.72
2022-11-26T11:27:39.332Z,96.82
2022-11-26T11:28:39.502Z,96.92
2022-11-26T11:29:39.317Z,96.92
2022-11-26T11:30:39.399Z,96.82
2022-11-26T11:31:39.332Z,96.72
2022-11-26T11:32:39.281Z,96.61
2022-11-26T11:33:39.265Z,96.41
2022-11-26T11:34:39.526Z,96.20
2022-11-26T11:35:39.314Z,96.20
2022-11-26T11:36:39.275Z,96.09
2022-11-26T11:37:39.163Z,96.09
2022-11-26T11:38:39.187Z,96.15
2022-11-26T11:39:39.161Z,96.05
2022-11-26T11:40:39.194Z,96.05
2022-11-26T11:41:39.106Z,96.05
2022-11-26T11:42:39.106Z,96.05
2022-11-26T11:43:39.084Z,96.05
2022-11-26T11:44:39.416Z,96.05
2022-11-26T11:45:39.137Z,96.05
2022-11-26T11:46:39.036Z,96.36
2022-11-26T11:47:39.024Z,99.99
2022-11-26T11:48:39.024Z,99.99
2022-11-26T11:49:39.029Z,99.32
2022-11-26T11:50:38.995Z,98.19
2022-11-26T11:51:38.995Z,97.09
2022-11-26T11:52:39.125Z,96.06
2022-11-26T11:53:38.962Z,95.45
2022-11-26T11:54:39.162Z,95.14
2022-11-26T11:55:38.923Z,95.03
2022-11-26T11:56:38.915Z,94.82
2022-11-26T11:57:38.918Z,94.93
2022-11-26T11:58:38.896Z,94.82
2022-11-26T11:59:38.884Z,94.56
2022-11-26T12:00:38.865Z,94.77
2022-11-26T12:01:39.002Z,94.87
2022-11-26T12:02:38.955Z,94.87
2022-11-26T12:03:38.824Z,94.87
2022-11-26T12:04:39.200Z,94.97
2022-11-26T12:05:38.805Z,99.99
2022-11-26T12:06:38.796Z,99.99
2022-11-26T12:07:38.841Z,99.99
2022-11-26T12:08:38.764Z,99.99
2022-11-26T12:09:38.764Z,99.10
2022-11-26T12:10:38.790Z,96.73
2022-11-26T12:11:38.894Z,93.90
2022-11-26T12:12:38.719Z,92.05
2022-11-26T12:13:38.702Z,91.06
2022-11-26T12:14:38.724Z,90.75
2022-11-26T12:15:38.687Z,90.69
2022-11-26T12:16:38.836Z,90.69
2022-11-26T12:17:38.643Z,90.22
2022-11-26T12:18:39.397Z,90.22
2022-11-26T12:19:38.677Z,90.67
2022-11-26T12:20:38.593Z,91.09
2022-11-26T12:21:38.594Z,91.50
2022-11-26T12:22:38.627Z,91.81
2022-11-26T12:23:38.753Z,92.12
2022-11-26T12:24:38.907Z,92.53
2022-11-26T12:25:38.576Z,92.94
2022-11-26T12:26:38.551Z,93.09
2022-11-26T12:27:38.544Z,93.30
2022-11-26T12:28:38.494Z,93.50
2022-11-26T12:29:38.505Z,93.71
2022-11-26T12:30:38.476Z,93.81
2022-11-26T12:31:38.584Z,93.81
2022-11-26T12:32:38.454Z,94.02
2022-11-26T12:33:38.423Z,94.12
2022-11-26T12:34:38.798Z,94.23
2022-11-26T12:35:38.413Z,94.43
2022-11-26T12:36:38.424Z,94.53
2022-11-26T12:37:38.389Z,94.64
2022-11-26T12:38:38.407Z,94.64
2022-11-26T12:39:38.384Z,94.74
2022-11-26T12:40:38.356Z,94.74
2022-11-26T12:41:38.344Z,94.78
2022-11-26T12:42:38.360Z,94.89
2022-11-26T12:43:38.327Z,94.89
2022-11-26T12:44:38.618Z,94.99
2022-11-26T12:45:38.440Z,94.99
2022-11-26T12:46:38.288Z,95.09
2022-11-26T12:47:38.258Z,95.20
2022-11-26T12:48:38.242Z,95.20
2022-11-26T12:49:38.286Z,95.09
2022-11-26T12:50:39.421Z,95.20
2022-11-26T12:51:38.211Z,95.30
2022-11-26T12:52:38.295Z,95.40
2022-11-26T12:53:38.187Z,95.40
2022-11-26T12:54:38.400Z,95.40